createdAt,value
2022-10-20T00:01:04.197Z,2.35
2022-10-20T00:03:32.268Z,1.45
2022-10-20T00:06:10.552Z,2.22
2022-10-20T00:08:38.889Z,1.98
2022-10-20T00:11:07.314Z,1.40
2022-10-20T00:13:35.227Z,6.57
2022-10-20T00:16:03.411Z,0.93
2022-10-20T00:18:31.012Z,1.73
2022-10-20T00:20:58.511Z,0.50
2022-10-20T00:23:26.208Z,1.85
2022-10-20T00:26:05.176Z,4.95
2022-10-20T00:28:33.161Z,1.35
2022-10-20T00:31:00.733Z,1.10
2022-10-20T00:33:28.189Z,1.55
2022-10-20T00:35:59.822Z,1.55
2022-10-20T00:38:27.272Z,2.75
2022-10-20T00:40:54.937Z,2.65
2022-10-20T00:43:22.970Z,5.80
2022-10-20T00:45:56.239Z,2.22
2022-10-20T00:48:27.604Z,1.65
2022-10-20T00:50:56.425Z,2.78
2022-10-20T00:53:26.786Z,1.20
2022-10-20T00:55:55.158Z,1.87
2022-10-20T00:58:22.659Z,2.97
2022-10-20T01:00:53.242Z,1.17
2022-10-20T01:03:25.159Z,1.85
2022-10-20T01:05:52.857Z,9.75
2022-10-20T01:08:20.232Z,1.17
2022-10-20T01:11:14.891Z,2.62
2022-10-20T01:14:13.422Z,2.33
2022-10-20T01:17:12.661Z,0.73
2022-10-20T01:20:05.077Z,2.05
2022-10-20T01:23:09.661Z,3.75
2022-10-20T01:25:55.258Z,2.00
2022-10-20T01:28:41.346Z,2.20
2022-10-20T01:31:42.944Z,1.20
2022-10-20T01:34:53.015Z,1.35
2022-10-20T01:37:40.555Z,1.60
2022-10-20T01:40:45.269Z,1.92
2022-10-20T01:43:14.398Z,0.95
2022-10-20T01:45:44.560Z,2.08
2022-10-20T01:48:13.489Z,1.42
2022-10-20T01:50:41.870Z,5.15
2022-10-20T01:53:09.436Z,1.20
2022-10-20T01:55:38.017Z,1.20
2022-10-20T01:58:43.174Z,0.85
2022-10-20T02:01:29.492Z,1.48
2022-10-20T02:03:59.707Z,0.70
2022-10-20T02:06:45.344Z,1.27
2022-10-20T02:11:51.101Z,2.75
2022-10-20T02:14:20.520Z,1.35
2022-10-20T02:16:59.881Z,1.15
2022-10-20T02:19:32.388Z,1.90
2022-10-20T02:22:00.237Z,0.93
2022-10-20T02:24:31.268Z,3.03
2022-10-20T02:27:01.955Z,1.37
2022-10-20T02:29:32.661Z,0.95
2022-10-20T02:32:00.485Z,2.28
2022-10-20T02:34:28.000Z,3.17
2022-10-20T02:36:58.575Z,1.70
2022-10-20T02:39:26.608Z,2.37
2022-10-20T02:41:54.735Z,2.00
2022-10-20T02:44:23.034Z,1.95
2022-10-20T02:46:50.442Z,1.90
2022-10-20T02:49:17.880Z,0.70
2022-10-20T02:51:45.554Z,0.85
2022-10-20T02:54:12.956Z,1.40
2022-10-20T02:56:40.366Z,0.82
2022-10-20T02:59:12.989Z,2.60
2022-10-20T03:01:41.084Z,1.10
2022-10-20T03:04:08.950Z,0.60
2022-10-20T03:06:36.337Z,2.53
2022-10-20T03:09:04.123Z,1.48
2022-10-20T03:11:31.930Z,1.05
2022-10-20T03:13:59.364Z,2.08
2022-10-20T03:16:26.917Z,0.75
2022-10-20T03:18:55.487Z,1.48
2022-10-20T03:21:25.040Z,0.77
2022-10-20T03:23:52.439Z,1.15
2022-10-20T03:26:20.147Z,1.65
2022-10-20T03:28:47.651Z,1.83
2022-10-20T03:31:15.012Z,1.98
2022-10-20T03:33:42.746Z,3.50
2022-10-20T03:36:10.173Z,2.17
2022-10-20T03:38:37.632Z,0.82
2022-10-20T03:41:05.498Z,0.98
2022-10-20T03:43:32.995Z,1.55
2022-10-20T03:46:08.857Z,1.80
2022-10-20T03:48:37.199Z,5.32
2022-10-20T03:51:05.008Z,1.48
2022-10-20T03:53:32.820Z,1.65
2022-10-20T03:56:05.879Z,2.50
2022-10-20T03:58:33.314Z,2.90
2022-10-20T04:01:01.205Z,2.35
2022-10-20T04:03:28.882Z,2.42
2022-10-20T04:05:56.315Z,2.42
2022-10-20T04:08:23.732Z,4.55
2022-10-20T04:10:51.421Z,1.85
2022-10-20T04:13:18.861Z,4.30
2022-10-20T04:15:46.254Z,2.92
2022-10-20T04:18:14.071Z,4.05
2022-10-20T04:20:44.373Z,1.75
2022-10-20T04:23:12.387Z,8.93
2022-10-20T04:25:45.544Z,3.80
2022-10-20T04:28:14.305Z,2.95
2022-10-20T04:30:42.686Z,1.60
2022-10-20T04:33:10.875Z,3.42
2022-10-20T04:35:38.315Z,2.40
2022-10-20T04:38:06.097Z,1.45
2022-10-20T04:40:33.618Z,4.25
2022-10-20T04:43:01.285Z,1.12
2022-10-20T04:45:29.080Z,0.93
2022-10-20T04:47:56.605Z,1.08
2022-10-20T04:50:24.007Z,1.65
2022-10-20T04:53:07.879Z,1.20
2022-10-20T04:55:35.973Z,0.80
2022-10-20T04:58:03.666Z,1.37
2022-10-20T05:00:31.218Z,1.27
2022-10-20T05:02:58.751Z,1.05
2022-10-20T05:05:26.425Z,0.77
2022-10-20T05:07:53.842Z,2.37
2022-10-20T05:10:21.264Z,1.62
2022-10-20T05:12:49.027Z,1.35
2022-10-20T05:15:16.452Z,2.05
2022-10-20T05:17:43.834Z,1.65
2022-10-20T05:20:11.565Z,1.65
2022-10-20T05:22:39.270Z,0.77
2022-10-20T05:25:31.266Z,1.30
2022-10-20T05:27:55.021Z,0.93
2022-10-20T05:30:22.450Z,2.50
2022-10-20T05:32:49.888Z,1.20
2022-10-20T05:35:17.548Z,3.53
2022-10-20T05:37:44.968Z,2.05
2022-10-20T05:40:12.760Z,2.28
2022-10-20T05:42:40.520Z,0.80
2022-10-20T05:45:08.871Z,1.65
2022-10-20T05:47:36.313Z,1.08
2022-10-20T05:50:04.524Z,2.75
2022-10-20T05:52:31.954Z,3.08
2022-10-20T05:54:59.617Z,2.83
2022-10-20T05:57:27.303Z,0.82
2022-10-20T05:59:54.691Z,1.62
2022-10-20T06:02:22.297Z,1.12
2022-10-20T06:04:49.989Z,2.55
2022-10-20T06:07:17.440Z,3.83
2022-10-20T06:09:44.875Z,3.25
2022-10-20T06:12:12.577Z,4.10
2022-10-20T06:14:39.991Z,5.43
2022-10-20T06:17:07.491Z,2.58
2022-10-20T06:19:35.163Z,2.45
2022-10-20T06:22:05.865Z,5.93
2022-10-20T06:24:35.022Z,5.60
2022-10-20T06:27:02.444Z,2.87
2022-10-20T06:29:29.872Z,5.70
2022-10-20T06:31:57.577Z,18.33
2022-10-20T06:34:25.918Z,1.48
2022-10-20T06:36:53.466Z,2.08
2022-10-20T06:39:22.954Z,2.90
2022-10-20T06:41:52.889Z,4.75
2022-10-20T06:44:22.525Z,2.87
2022-10-20T06:46:52.445Z,5.97
2022-10-20T06:49:20.492Z,2.42
2022-10-20T06:51:48.248Z,5.78
2022-10-20T06:54:15.690Z,11.68
2022-10-20T06:56:43.242Z,2.67
2022-10-20T06:59:11.058Z,8.10
2022-10-20T07:01:39.398Z,7.28
2022-10-20T07:04:10.397Z,4.75
2022-10-20T07:06:39.854Z,4.10
2022-10-20T07:09:09.186Z,3.75
2022-10-20T07:11:36.729Z,4.28
2022-10-20T07:14:04.733Z,9.75
2022-10-20T07:16:33.803Z,4.03
2022-10-20T07:19:02.298Z,2.80
2022-10-20T07:21:34.982Z,3.03
2022-10-20T07:24:06.607Z,1.20
2022-10-20T07:26:36.290Z,16.55
2022-10-20T07:29:04.156Z,4.07
2022-10-20T07:31:33.330Z,4.37
2022-10-20T07:34:12.923Z,2.17
2022-10-20T07:36:49.319Z,4.22
2022-10-20T07:39:17.032Z,3.42
2022-10-20T07:41:47.300Z,1.95
2022-10-20T07:44:15.098Z,7.85
2022-10-20T07:46:42.868Z,3.05
2022-10-20T07:49:43.052Z,4.03
2022-10-20T07:51:58.221Z,11.98
2022-10-20T07:54:25.761Z,4.78
2022-10-20T07:56:53.294Z,3.47
2022-10-20T07:59:21.088Z,2.45
2022-10-20T08:01:48.595Z,13.35
2022-10-20T08:04:16.374Z,2.92
2022-10-20T08:06:43.824Z,1.45
2022-10-20T08:09:11.481Z,2.30
2022-10-20T08:11:39.158Z,3.15
2022-10-20T08:14:06.748Z,4.60
2022-10-20T08:16:36.741Z,2.83
2022-10-20T08:21:46.135Z,6.68
2022-10-20T08:24:13.886Z,3.83
2022-10-20T08:26:41.414Z,3.10
2022-10-20T08:29:08.960Z,2.05
2022-10-20T08:31:36.725Z,7.18
2022-10-20T08:34:04.358Z,3.70
2022-10-20T08:36:31.828Z,3.40
2022-10-20T08:39:03.489Z,3.17
2022-10-20T08:41:55.206Z,3.62
2022-10-20T08:44:27.397Z,2.25
2022-10-20T08:46:55.039Z,4.35
2022-10-20T08:49:28.104Z,7.37
2022-10-20T08:51:55.942Z,7.03
2022-10-20T08:54:23.408Z,3.22
2022-10-20T08:56:50.808Z,2.72
2022-10-20T08:59:21.430Z,2.72
2022-10-20T09:01:49.091Z,2.62
2022-10-20T09:04:20.497Z,4.47
2022-10-20T09:06:53.956Z,1.87
2022-10-20T09:09:22.310Z,2.17
2022-10-20T09:11:50.274Z,1.48
2022-10-20T09:14:17.740Z,2.53
2022-10-20T09:16:59.809Z,4.47
2022-10-20T09:19:29.124Z,1.48
2022-10-20T09:22:03.973Z,2.03
2022-10-20T09:24:32.058Z,2.53
2022-10-20T09:27:39.880Z,1.35
2022-10-20T09:30:26.049Z,2.50
2022-10-20T09:32:53.646Z,2.47
2022-10-20T09:35:27.995Z,1.73
2022-10-20T09:38:18.083Z,1.50
2022-10-20T09:41:02.590Z,1.98
2022-10-20T09:43:30.078Z,3.90
2022-10-20T09:46:05.230Z,5.28
2022-10-20T09:48:42.542Z,2.08
2022-10-20T09:51:14.857Z,1.62
2022-10-20T09:54:02.910Z,2.10
2022-10-20T09:56:36.773Z,2.15
2022-10-20T09:59:21.551Z,1.77
2022-10-20T10:01:59.247Z,3.10
2022-10-20T10:04:34.383Z,2.47
2022-10-20T10:07:03.791Z,1.80
2022-10-20T10:09:37.654Z,1.87
2022-10-20T10:12:16.716Z,4.85
2022-10-20T10:14:52.509Z,4.20
2022-10-20T10:17:40.453Z,2.80
2022-10-20T10:20:35.107Z,3.40
2022-10-20T10:23:20.937Z,5.32
2022-10-20T10:25:50.081Z,3.92
2022-10-20T10:28:31.727Z,4.00
2022-10-20T10:31:22.396Z,5.60
2022-10-20T10:33:52.601Z,4.03
2022-10-20T10:36:34.921Z,3.22
2022-10-20T10:39:04.740Z,2.55
2022-10-20T10:41:59.798Z,4.10
2022-10-20T10:44:45.717Z,3.22
2022-10-20T10:47:28.097Z,9.15
2022-10-20T10:50:17.320Z,2.53
2022-10-20T10:53:19.001Z,2.75
2022-10-20T10:56:28.245Z,2.65
2022-10-20T10:59:37.153Z,1.75
2022-10-20T11:02:41.907Z,3.75
2022-10-20T11:08:16.332Z,1.58
2022-10-20T11:11:02.541Z,1.87
2022-10-20T11:13:36.179Z,2.70
2022-10-20T11:16:21.800Z,1.62
2022-10-20T11:19:24.065Z,1.45
2022-10-20T11:22:16.320Z,4.40
2022-10-20T11:25:17.011Z,1.42
2022-10-20T11:27:44.852Z,2.35
2022-10-20T11:30:20.855Z,1.73
2022-10-20T11:33:12.263Z,1.15
2022-10-20T11:35:54.085Z,2.33
2022-10-20T11:38:40.196Z,2.12
2022-10-20T11:41:34.843Z,12.70
2022-10-20T11:44:06.516Z,4.00
2022-10-20T11:46:35.778Z,3.22
2022-10-20T11:49:04.474Z,2.62
2022-10-20T11:51:31.787Z,3.10
2022-10-20T11:54:21.092Z,2.92
2022-10-20T11:57:13.698Z,3.60
2022-10-20T12:00:12.258Z,2.83
2022-10-20T12:02:46.137Z,15.63
2022-10-20T12:05:57.896Z,3.80
2022-10-20T12:08:34.035Z,3.55
2022-10-20T12:11:32.511Z,2.15
2022-10-20T12:14:15.461Z,3.00
2022-10-20T12:16:52.158Z,3.70
2022-10-20T12:19:25.613Z,2.60
2022-10-20T12:21:54.328Z,1.75
2022-10-20T12:24:54.576Z,19.95
2022-10-20T12:27:24.200Z,2.17
2022-10-20T12:29:54.422Z,3.05
2022-10-20T12:32:22.065Z,3.60
2022-10-20T12:34:54.382Z,3.67
2022-10-20T12:37:25.279Z,3.87
2022-10-20T12:40:07.827Z,3.10
2022-10-20T12:42:40.440Z,3.10
2022-10-20T12:45:22.577Z,6.10
2022-10-20T12:47:52.447Z,3.72
2022-10-20T12:50:38.955Z,3.80
2022-10-20T12:53:11.791Z,4.12
2022-10-20T12:55:41.859Z,2.03
2022-10-20T12:58:34.272Z,3.83
2022-10-20T13:01:10.539Z,5.65
2022-10-20T13:03:40.140Z,4.00
2022-10-20T13:06:22.865Z,4.15
2022-10-20T13:09:10.575Z,2.60
2022-10-20T13:11:38.257Z,3.95
2022-10-20T13:14:12.171Z,1.45
2022-10-20T13:16:44.886Z,3.20
2022-10-20T13:19:22.190Z,9.85
2022-10-20T13:21:50.578Z,1.75
2022-10-20T13:24:23.731Z,4.97
2022-10-20T13:26:57.611Z,2.95
2022-10-20T13:29:36.314Z,1.60
2022-10-20T13:32:12.662Z,2.85
2022-10-20T13:35:04.450Z,2.47
2022-10-20T13:37:45.423Z,4.55
2022-10-20T13:40:30.961Z,1.98
2022-10-20T13:43:11.781Z,8.00
2022-10-20T13:46:04.082Z,4.57
2022-10-20T13:49:07.165Z,7.43
2022-10-20T13:51:47.522Z,3.87
2022-10-20T13:54:28.124Z,2.90
2022-10-20T13:56:56.084Z,3.80
2022-10-20T14:02:01.730Z,4.30
2022-10-20T14:04:35.870Z,3.08
2022-10-20T14:07:22.519Z,2.05
2022-10-20T14:09:57.274Z,4.25
2022-10-20T14:12:26.569Z,5.57
2022-10-20T14:15:01.470Z,2.40
2022-10-20T14:20:17.753Z,3.75
2022-10-20T14:22:45.476Z,6.03
2022-10-20T14:25:13.266Z,3.33
2022-10-20T14:27:41.079Z,4.85
2022-10-20T14:30:13.940Z,2.50
2022-10-20T14:32:43.869Z,4.05
2022-10-20T14:35:29.939Z,3.28
2022-10-20T14:38:02.963Z,3.30
2022-10-20T14:40:33.596Z,4.10
2022-10-20T14:43:04.731Z,3.95
2022-10-20T14:48:06.213Z,3.90
2022-10-20T14:50:40.934Z,4.40
2022-10-20T14:53:27.440Z,1.67
2022-10-20T14:55:55.668Z,3.72
2022-10-20T14:58:37.137Z,2.90
2022-10-20T15:01:15.315Z,2.80
2022-10-20T15:03:44.538Z,4.25
2022-10-20T15:06:17.643Z,3.80
2022-10-20T15:08:53.692Z,4.62
2022-10-20T15:11:23.698Z,4.15
2022-10-20T15:13:53.405Z,2.12
2022-10-20T15:16:45.637Z,4.65
2022-10-20T15:19:36.420Z,3.87
2022-10-20T15:22:07.825Z,6.20
2022-10-20T15:24:36.617Z,3.70
2022-10-20T15:27:05.517Z,4.78
2022-10-20T15:29:34.047Z,10.82
2022-10-20T15:32:02.641Z,8.90
2022-10-20T15:34:30.615Z,7.43
2022-10-20T15:36:58.875Z,9.45
2022-10-20T15:39:27.389Z,8.90
2022-10-20T15:41:55.176Z,6.65
2022-10-20T15:44:23.574Z,9.95
2022-10-20T15:46:53.567Z,8.73
2022-10-20T15:49:21.400Z,10.07
2022-10-20T15:51:50.595Z,5.87
2022-10-20T15:54:20.802Z,10.63
2022-10-20T15:56:48.760Z,6.37
2022-10-20T15:59:16.251Z,10.35
2022-10-20T16:01:44.035Z,15.57
2022-10-20T16:04:23.242Z,27.55
2022-10-20T16:06:57.913Z,24.17
2022-10-20T16:09:28.264Z,13.75
2022-10-20T16:11:56.002Z,16.85
2022-10-20T16:14:23.980Z,7.12
2022-10-20T16:16:51.763Z,11.18
2022-10-20T16:19:19.377Z,12.80
2022-10-20T16:22:06.831Z,19.17
2022-10-20T16:24:56.182Z,55.33
2022-10-20T16:27:43.643Z,26.00
2022-10-20T16:30:31.281Z,24.25
2022-10-20T16:33:18.659Z,14.48
2022-10-20T16:35:46.381Z,24.50
2022-10-20T16:38:13.997Z,9.15
2022-10-20T16:40:42.614Z,20.62
2022-10-20T16:43:10.601Z,25.52
2022-10-20T16:45:39.544Z,43.47
2022-10-20T16:48:07.092Z,22.75
2022-10-20T16:50:34.868Z,17.30
2022-10-20T16:53:02.280Z,14.65
2022-10-20T16:55:29.819Z,14.13
2022-10-20T16:57:57.702Z,21.15
2022-10-20T17:00:25.226Z,15.25
2022-10-20T17:02:56.303Z,11.45
2022-10-20T17:05:26.499Z,8.23
2022-10-20T17:07:55.399Z,9.95
2022-10-20T17:10:23.149Z,10.65
2022-10-20T17:12:51.189Z,12.90
2022-10-20T17:15:18.685Z,6.62
2022-10-20T17:17:46.289Z,8.35
2022-10-20T17:20:14.366Z,12.50
2022-10-20T17:22:41.907Z,9.82
2022-10-20T17:25:09.774Z,6.18
2022-10-20T17:27:37.690Z,8.43
2022-10-20T17:30:05.873Z,9.00
2022-10-20T17:32:33.467Z,8.88
2022-10-20T17:35:01.393Z,12.98
2022-10-20T17:37:28.979Z,7.35
2022-10-20T17:39:57.695Z,6.45
2022-10-20T17:42:25.574Z,7.40
2022-10-20T17:44:53.242Z,8.57
2022-10-20T17:47:22.040Z,10.38
2022-10-20T17:49:49.937Z,8.98
2022-10-20T17:52:17.951Z,9.20
2022-10-20T17:54:45.606Z,10.23
2022-10-20T17:57:13.559Z,9.57
2022-10-20T17:59:52.461Z,8.32
2022-10-20T18:02:23.795Z,17.98
2022-10-20T18:04:52.382Z,7.53
2022-10-20T18:07:19.929Z,11.20
2022-10-20T18:09:47.645Z,5.55
2022-10-20T18:12:16.791Z,7.75
2022-10-20T18:14:44.823Z,8.27
2022-10-20T18:17:13.594Z,33.67
2022-10-20T18:19:41.620Z,16.60
2022-10-20T18:22:09.230Z,11.15
2022-10-20T18:24:37.357Z,8.90
2022-10-20T18:27:05.980Z,10.02
2022-10-20T18:29:33.658Z,5.65
2022-10-20T18:32:01.320Z,11.15
2022-10-20T18:34:29.039Z,7.05
2022-10-20T18:36:56.685Z,10.35
2022-10-20T18:39:24.459Z,9.35
2022-10-20T18:41:54.112Z,7.22
2022-10-20T18:44:22.008Z,5.62
2022-10-20T18:46:51.254Z,8.45
2022-10-20T18:49:21.469Z,2.83
2022-10-20T18:51:49.925Z,7.55
2022-10-20T18:54:21.300Z,17.30
2022-10-20T18:56:49.586Z,6.85
2022-10-20T18:59:17.922Z,6.53
2022-10-20T19:01:45.827Z,7.15
2022-10-20T19:04:13.982Z,5.40
2022-10-20T19:06:43.843Z,6.95
2022-10-20T19:09:20.680Z,6.87
2022-10-20T19:11:51.859Z,7.28
2022-10-20T19:14:19.523Z,7.00
2022-10-20T19:16:48.713Z,8.93
2022-10-20T19:19:17.244Z,5.00
2022-10-20T19:21:45.219Z,4.85
2022-10-20T19:24:21.485Z,14.60
2022-10-20T19:27:14.490Z,5.68
2022-10-20T19:29:43.636Z,3.67
2022-10-20T19:32:12.208Z,7.50
2022-10-20T19:34:40.842Z,10.77
2022-10-20T19:37:09.707Z,11.60
2022-10-20T19:39:40.181Z,7.37
2022-10-20T19:42:08.371Z,9.13
2022-10-20T19:44:36.207Z,8.45
2022-10-20T19:47:05.179Z,6.68
2022-10-20T19:49:32.873Z,8.20
2022-10-20T19:52:00.566Z,8.27
2022-10-20T19:54:28.578Z,9.50
2022-10-20T19:56:56.534Z,6.80
2022-10-20T19:59:24.260Z,9.95
2022-10-20T20:01:52.806Z,10.40
2022-10-20T20:04:20.819Z,8.98
2022-10-20T20:06:48.592Z,6.93
2022-10-20T20:09:16.083Z,4.97
2022-10-20T20:11:44.364Z,5.43
2022-10-20T20:14:17.743Z,5.82
2022-10-20T20:16:46.551Z,7.82
2022-10-20T20:19:16.516Z,8.23
2022-10-20T20:21:44.171Z,6.12
2022-10-20T20:24:13.545Z,9.57
2022-10-20T20:26:41.199Z,4.62
2022-10-20T20:29:09.740Z,11.12
2022-10-20T20:31:37.548Z,5.32
2022-10-20T20:34:05.407Z,6.78
2022-10-20T20:36:32.935Z,6.07
2022-10-20T20:39:01.271Z,6.40
2022-10-20T20:41:30.337Z,12.43
2022-10-20T20:43:57.838Z,9.90
2022-10-20T20:46:29.243Z,10.73
2022-10-20T20:48:57.578Z,6.55
2022-10-20T20:51:26.961Z,7.28
2022-10-20T20:53:55.117Z,6.85
2022-10-20T20:56:23.364Z,14.73
2022-10-20T20:58:55.255Z,7.25
2022-10-20T21:01:27.493Z,3.22
2022-10-20T21:03:56.676Z,6.12
2022-10-20T21:06:33.157Z,5.72
2022-10-20T21:09:01.907Z,11.90
2022-10-20T21:11:29.674Z,4.35
2022-10-20T21:13:59.051Z,6.20
2022-10-20T21:16:32.711Z,10.90
2022-10-20T21:19:05.174Z,12.43
2022-10-20T21:21:35.247Z,10.13
2022-10-20T21:24:04.453Z,8.57
2022-10-20T21:26:32.481Z,5.75
2022-10-20T21:29:00.314Z,4.32
2022-10-20T21:31:29.082Z,8.63
2022-10-20T21:33:59.644Z,7.72
2022-10-20T21:36:28.841Z,6.18
2022-10-20T21:38:56.529Z,6.22
2022-10-20T21:41:26.531Z,14.05
2022-10-20T21:43:56.615Z,7.35
2022-10-20T21:46:31.467Z,5.57
2022-10-20T21:49:01.867Z,5.32
2022-10-20T21:51:34.192Z,7.47
2022-10-20T21:54:04.535Z,5.20
2022-10-20T21:56:36.303Z,2.80
2022-10-20T21:59:05.518Z,5.53
2022-10-20T22:01:33.388Z,12.63
2022-10-20T22:04:01.181Z,9.18
2022-10-20T22:06:28.579Z,7.28
2022-10-20T22:08:57.787Z,9.30
2022-10-20T22:11:31.822Z,6.90
2022-10-20T22:13:59.471Z,8.00
2022-10-20T22:16:29.289Z,8.70
2022-10-20T22:19:04.045Z,6.80
2022-10-20T22:21:32.158Z,7.28
2022-10-20T22:24:00.511Z,7.50
2022-10-20T22:26:29.520Z,7.62
2022-10-20T22:28:58.242Z,7.57
2022-10-20T22:31:25.989Z,10.65
2022-10-20T22:33:55.541Z,7.55
2022-10-20T22:36:23.844Z,6.80
2022-10-20T22:38:51.398Z,6.55
2022-10-20T22:41:18.861Z,7.53
2022-10-20T22:43:47.014Z,5.43
2022-10-20T22:46:15.963Z,5.95
2022-10-20T22:48:44.187Z,6.28
2022-10-20T22:51:12.383Z,6.75
2022-10-20T22:53:39.807Z,6.22
2022-10-20T22:56:10.120Z,8.38
2022-10-20T22:58:38.498Z,6.57
2022-10-20T23:01:10.489Z,7.10
2022-10-20T23:03:38.775Z,7.78
2022-10-20T23:06:08.043Z,6.55
2022-10-20T23:08:40.378Z,7.70
2022-10-20T23:11:08.231Z,6.00
2022-10-20T23:13:35.764Z,7.03
2022-10-20T23:16:03.801Z,4.22
2022-10-20T23:18:31.752Z,6.85
2022-10-20T23:20:59.269Z,5.62
2022-10-20T23:23:26.823Z,5.20
2022-10-20T23:25:54.827Z,7.62
2022-10-20T23:28:22.273Z,7.47
2022-10-20T23:30:49.769Z,3.53
2022-10-20T23:33:17.558Z,3.70
2022-10-20T23:35:46.765Z,10.25
2022-10-20T23:38:14.201Z,4.95
2022-10-20T23:40:41.915Z,5.07
2022-10-20T23:43:09.332Z,5.35
2022-10-20T23:45:37.762Z,5.10
2022-10-20T23:48:05.683Z,5.80
2022-10-20T23:50:33.095Z,10.27
2022-10-20T23:53:00.571Z,4.78
2022-10-20T23:55:28.494Z,6.50
2022-10-20T23:57:56.013Z,5.15
